createdAt,value
2022-10-22T07:16:48.426Z,16.00
2022-10-22T07:19:17.714Z,16.30
2022-10-22T07:21:47.503Z,16.70
2022-10-22T07:24:16.821Z,16.80
2022-10-22T07:26:45.770Z,16.50
2022-10-22T07:29:17.770Z,16.90
2022-10-22T07:31:49.608Z,16.80
2022-10-22T07:37:06.724Z,17.20
2022-10-22T07:39:36.373Z,17.30
2022-10-22T07:42:06.767Z,16.10
2022-10-22T07:44:40.741Z,16.70
2022-10-22T07:47:39.481Z,16.40
2022-10-22T07:50:09.478Z,17.10
2022-10-22T07:52:42.135Z,16.60
2022-10-22T07:55:12.437Z,16.80
2022-10-22T07:57:41.494Z,17.40
2022-10-22T08:00:12.009Z,16.70
2022-10-22T08:02:43.118Z,16.00
2022-10-22T08:05:18.656Z,17.10
2022-10-22T08:07:47.662Z,17.30
2022-10-22T08:10:21.670Z,17.40
2022-10-22T08:12:52.943Z,17.50
2022-10-22T08:15:25.605Z,17.90
2022-10-22T08:17:56.196Z,17.40
2022-10-22T08:20:25.508Z,18.00
2022-10-22T08:22:54.595Z,16.90
2022-10-22T08:25:23.562Z,17.50
2022-10-22T08:27:52.586Z,17.70
2022-10-22T08:30:21.718Z,17.30
2022-10-22T08:32:53.870Z,17.10
2022-10-22T08:35:27.222Z,17.50
2022-10-22T08:37:56.789Z,17.60
2022-10-22T08:40:30.272Z,17.10
2022-10-22T08:43:19.687Z,17.20
2022-10-22T08:46:04.031Z,17.40
2022-10-22T08:48:45.448Z,18.00
2022-10-22T08:51:21.182Z,17.40
2022-10-22T08:54:12.386Z,17.70
2022-10-22T08:56:47.570Z,17.00
2022-10-22T08:59:24.770Z,17.00
2022-10-22T09:01:56.897Z,17.00
2022-10-22T09:04:34.392Z,17.00
2022-10-22T09:07:05.041Z,17.10
2022-10-22T09:09:44.661Z,17.20
2022-10-22T09:12:20.268Z,17.60
2022-10-22T09:14:49.922Z,17.20
2022-10-22T09:17:29.140Z,17.20
2022-10-22T09:20:09.032Z,17.40
2022-10-22T09:22:54.355Z,17.50
2022-10-22T09:25:25.199Z,17.80
2022-10-22T09:27:58.668Z,17.40
2022-10-22T09:30:30.100Z,17.10
2022-10-22T09:33:06.018Z,17.80
2022-10-22T09:35:37.238Z,17.80
2022-10-22T09:38:11.980Z,17.90
2022-10-22T09:40:50.028Z,17.20
2022-10-22T09:43:19.689Z,17.30
2022-10-22T09:45:50.651Z,17.30
2022-10-22T09:48:29.936Z,17.00
2022-10-22T09:51:04.997Z,17.50
2022-10-22T09:53:39.858Z,17.40
2022-10-22T09:56:12.881Z,17.60
2022-10-22T09:58:45.631Z,17.50
2022-10-22T10:01:20.650Z,19.00
2022-10-22T10:03:51.620Z,17.80
2022-10-22T10:06:22.667Z,17.50
2022-10-22T10:08:55.457Z,17.60
2022-10-22T10:11:30.338Z,17.90
2022-10-22T10:14:14.216Z,17.40
2022-10-22T10:16:52.277Z,17.60
2022-10-22T10:19:43.914Z,17.70
2022-10-22T10:22:25.664Z,17.80
2022-10-22T10:25:29.419Z,18.10
2022-10-22T10:28:11.357Z,17.80
2022-10-22T10:30:48.316Z,17.80
2022-10-22T10:33:29.710Z,17.90
2022-10-22T10:36:09.029Z,17.90
2022-10-22T10:38:45.569Z,18.40
2022-10-22T10:41:24.914Z,18.00
2022-10-22T10:44:13.914Z,17.60
2022-10-22T10:46:51.334Z,17.80
2022-10-22T10:49:24.894Z,17.90
2022-10-22T10:52:05.587Z,18.40
2022-10-22T10:54:47.189Z,18.50
2022-10-22T10:57:33.840Z,18.00
2022-10-22T11:00:09.220Z,18.30
2022-10-22T11:03:25.891Z,18.50
2022-10-22T11:05:58.247Z,19.00
2022-10-22T11:08:32.823Z,18.70
2022-10-22T11:11:06.517Z,19.00
2022-10-22T11:13:41.265Z,18.70
2022-10-22T11:16:19.844Z,16.70
2022-10-22T11:18:54.544Z,18.00
2022-10-22T11:21:31.408Z,18.50
2022-10-22T11:24:13.032Z,18.50
2022-10-22T11:26:49.122Z,18.60
2022-10-22T11:29:27.203Z,17.30
2022-10-22T11:31:59.478Z,18.40
2022-10-22T11:34:36.032Z,18.50
2022-10-22T11:37:11.725Z,18.30
2022-10-22T11:39:45.663Z,19.00
2022-10-22T11:42:21.171Z,18.00
2022-10-22T11:45:02.962Z,18.50
2022-10-22T11:47:35.748Z,18.10
2022-10-22T11:50:21.929Z,18.20
2022-10-22T11:53:03.844Z,18.10
2022-10-22T11:55:52.481Z,18.20
2022-10-22T11:58:39.072Z,17.80
2022-10-22T12:01:29.483Z,18.40
